KSMS

Details ICAO KSMS
Name SUMTER
Region United States
Timezone America/New_York (UTC-5.0)
Plans Departing 7
Arriving 4
Stats Elevation 182 ft / 55 m (AMSL)
Location 33.994761° -80.361259°
Runways 2
Magnetic Variation 7.865° W
Sunrise 2017-12-14 12:20:23 UTC / 2017-12-14 07:20:23 Local
Sunset 2017-12-14 22:14:52 UTC / 2017-12-14 17:14:52 Local
Advertisement - Login to hide

Runways

ID Width Length Bearing (true) Bearing (mag) Surface Threshold Offset Overrun Length
05 100 ft / 30 m 5,504 ft / 1,678 m 43.03° 50.90° Asphalt 0 ft / 0 m 0 ft / 0 m
14 120 ft / 37 m 3,082 ft / 940 m 134.12° 141.99° Grass 0 ft / 0 m 0 ft / 0 m
23 100 ft / 30 m 5,504 ft / 1,678 m 223.04° 230.91° Asphalt 0 ft / 0 m 0 ft / 0 m
32 120 ft / 37 m 3,082 ft / 940 m 314.12° 321.99° Grass 0 ft / 0 m 0 ft / 0 m

Map

Weather


0- 5 10 15 20 25 30 35+ Temperature / ° C

Clouds and Precipitation
Forecast for 2017-12-15 06:00 UTC. Updated an hour ago

Ground ~20,000 ft ~40,000 ft Winds

METAR

KSMS 150435Z AUTO 00000KT 10SM CLR 04/03 A2999 RMK AO2

TAF

Not found

Frequencies

Recorded 118.07 MHz AWOS
Approach 125.40 MHz SHAW APP/DEP
Unicom 122.70 MHz CTAF/UNICOM
Warning: Do not use this data for real-world aviation or navigation. No guarantee of current accuracy is given.